www.bettendroffer.lu
Wetterdaten: Woche 17.01.11 - 23.01.11 (KW3)
Datum Zeit Temp. 1 ext. Temp. 3 Feuchte 1 Feuchte 3 Luftdruck Regen Wind Richtung Taupunkt Windchill
17.01.2011 00:00 -0,2 C -0,8 C 68 % 75 % 1019 hPa 0,0 l/m 0,0 km/h (0 Bft) - - -5,3 C -0,2 C
17.01.2011 01:00 -0,6 C -1,0 C 71 % 76 % 1019 hPa 0,0 l/m 0,0 km/h (0 Bft) - - -5,2 C -0,6 C
17.01.2011 02:00 -0,5 C -0,9 C 73 % 78 % 1019 hPa 0,0 l/m 0,0 km/h (0 Bft) - - -4,8 C -0,5 C
17.01.2011 03:00 -0,4 C -0,9 C 75 % 80 % 1019 hPa 0,0 l/m 0,0 km/h (0 Bft) - - -4,4 C -0,4 C
17.01.2011 04:00 -0,3 C -0,6 C 76 % 81 % 1019 hPa 0,0 l/m 0,0 km/h (0 Bft) - - -4,0 C -0,3 C
17.01.2011 05:00 -0,4 C -0,9 C 76 % 82 % 1019 hPa 0,0 l/m 0,0 km/h (0 Bft) - - -4,1 C -0,4 C
17.01.2011 06:00 -0,4 C -0,8 C 77 % 83 % 1018 hPa 0,0 l/m 0,0 km/h (0 Bft) - - -4,0 C -0,4 C
17.01.2011 07:00 -0,2 C -0,6 C 77 % 83 % 1018 hPa 0,0 l/m 0,0 km/h (0 Bft) - - -3,7 C -0,2 C
17.01.2011 08:00 -0,2 C -0,4 C 77 % 84 % 1018 hPa 0,0 l/m 0,0 km/h (0 Bft) - - -3,7 C -0,2 C
17.01.2011 09:00 0,3 C -0,1 C 78 % 84 % 1018 hPa 0,0 l/m 0,0 km/h (0 Bft) - - -3,1 C 0,3 C
17.01.2011 10:00 1,0 C 0,6 C 79 % 85 % 1019 hPa 0,0 l/m 0,0 km/h (0 Bft) - - -2,4 C 1,0 C
17.01.2011 11:00 2,2 C 2,0 C 78 % 86 % 1019 hPa 0,0 l/m 0,0 km/h (0 Bft) - - -1,2 C 2,2 C
17.01.2011 12:00 4,0 C 3,8 C 73 % 86 % 1018 hPa 0,0 l/m 0,0 km/h (0 Bft) - - -0,4 C 4,0 C
17.01.2011 13:00 5,4 C 5,2 C 51 % 65 % 1018 hPa 0,0 l/m 0,0 km/h (0 Bft) - - -3,9 C 5,4 C
17.01.2011 14:00 5,4 C 5,4 C 50 % 64 % 1018 hPa 0,0 l/m 0,0 km/h (0 Bft) - - -4,2 C 5,4 C
17.01.2011 15:00 6,1 C 5,9 C 53 % 66 % 1018 hPa 0,0 l/m 0,0 km/h (0 Bft) - - -2,9 C 6,1 C
17.01.2011 16:00 6,7 C 6,6 C 53 % 66 % 1017 hPa 0,0 l/m 0,0 km/h (0 Bft) - - -2,3 C 6,7 C
17.01.2011 17:00 6,6 C 6,6 C 51 % 65 % 1017 hPa 0,0 l/m 0,0 km/h (0 Bft) - - -2,8 C 6,6 C
17.01.2011 18:00 6,8 C 6,6 C 52 % 66 % 1017 hPa 0,0 l/m 0,0 km/h (0 Bft) - - -2,4 C 6,8 C
17.01.2011 19:00 6,9 C 6,8 C 54 % 66 % 1017 hPa 0,0 l/m 0,0 km/h (0 Bft) - - -1,9 C 6,9 C
17.01.2011 20:00 6,9 C 6,8 C 54 % 67 % 1018 hPa 0,0 l/m 0,0 km/h (0 Bft) - - -1,8 C 6,9 C
17.01.2011 21:00 7,2 C 7,1 C 53 % 67 % 1018 hPa 0,0 l/m 0,0 km/h (0 Bft) - - -1,7 C 7,2 C
17.01.2011 22:00 7,0 C 6,9 C 53 % 67 % 1018 hPa 0,0 l/m 0,0 km/h (0 Bft) - - -2,0 C 7,0 C
17.01.2011 23:00 7,2 C 7,1 C 54 % 67 % 1018 hPa 0,0 l/m 0,0 km/h (0 Bft) - - -1,5 C 7,2 C
18.01.2011 00:00 7,3 C 7,1 C 53 % 66 % 1019 hPa 0,0 l/m 0,0 km/h (0 Bft) - - -1,8 C 7,3 C
18.01.2011 01:00 7,4 C 7,3 C 52 % 66 % 1018 hPa 0,0 l/m 0,0 km/h (0 Bft) - - -1,8 C 7,4 C
18.01.2011 02:00 7,4 C 7,4 C 53 % 66 % 1018 hPa 0,0 l/m 0,0 km/h (0 Bft) - - -1,5 C 7,4 C
18.01.2011 03:00 7,4 C 7,3 C 55 % 67 % 1018 hPa 0,0 l/m 0,0 km/h (0 Bft) - - -1,0 C 7,4 C
18.01.2011 04:00 7,4 C 7,3 C 57 % 68 % 1018 hPa 0,0 l/m 0,0 km/h (0 Bft) - - -0,7 C 7,4 C
18.01.2011 05:00 7,1 C 6,9 C 59 % 69 % 1018 hPa 0,0 l/m 0,0 km/h (0 Bft) - - -0,5 C 7,1 C
18.01.2011 06:00 7,0 C 6,9 C 59 % 70 % 1017 hPa 0,0 l/m 0,0 km/h (0 Bft) - - -0,6 C 7,0 C
18.01.2011 07:00 7,3 C 7,3 C 55 % 69 % 1017 hPa 0,0 l/m 0,0 km/h (0 Bft) - - -1,3 C 7,3 C
18.01.2011 08:00 7,2 C 7,3 C 55 % 67 % 1017 hPa 0,4 l/m 0,0 km/h (0 Bft) - - -1,4 C 7,2 C
18.01.2011 09:00 6,9 C 6,9 C 70 % 71 % 1017 hPa 0,0 l/m 0,0 km/h (0 Bft) - - 1,8 C 6,9 C
18.01.2011 10:00 7,1 C 7,2 C 73 % 72 % 1017 hPa 0,4 l/m 0,0 km/h (0 Bft) - - 2,5 C 7,1 C
18.01.2011 11:00 7,7 C 8,4 C 63 % 68 % 1017 hPa 0,0 l/m 0,0 km/h (0 Bft) - - 0,9 C 7,7 C
18.01.2011 12:00 8,1 C 8,4 C 49 % 58 % 1017 hPa 0,0 l/m 0,0 km/h (0 Bft) - - -2,0 C 8,1 C
18.01.2011 13:00 8,6 C 9,5 C 45 % 51 % 1016 hPa 0,0 l/m 0,0 km/h (0 Bft) - - -2,8 C 8,6 C
18.01.2011 14:00 7,3 C 7,3 C 50 % 59 % 1016 hPa 1,1 l/m 0,0 km/h (0 Bft) - - -2,5 C 7,3 C
18.01.2011 15:00 7,7 C 7,6 C 50 % 62 % 1016 hPa 0,0 l/m 0,0 km/h (0 Bft) - - -2,1 C 7,7 C
18.01.2011 16:00 6,8 C 7,1 C 55 % 64 % 1017 hPa 0,0 l/m 0,0 km/h (0 Bft) - - -1,7 C 6,8 C
18.01.2011 17:00 6,8 C 6,7 C 54 % 65 % 1017 hPa 0,0 l/m 0,0 km/h (0 Bft) - - -1,9 C 6,8 C
18.01.2011 18:00 6,1 C 6,1 C 54 % 64 % 1018 hPa 0,4 l/m 0,0 km/h (0 Bft) - - -2,5 C 6,1 C
18.01.2011 19:00 5,9 C 5,8 C 64 % 69 % 1018 hPa 0,0 l/m 0,0 km/h (0 Bft) - - -0,4 C 5,9 C
18.01.2011 20:00 5,4 C 5,2 C 53 % 68 % 1019 hPa 0,0 l/m 0,0 km/h (0 Bft) - - -3,5 C 5,4 C
18.01.2011 21:00 5,1 C 4,8 C 46 % 63 % 1019 hPa 0,0 l/m 0,0 km/h (0 Bft) - - -5,7 C 5,1 C
18.01.2011 22:00 4,8 C 4,4 C 44 % 61 % 1020 hPa 0,0 l/m 0,0 km/h (0 Bft) - - -6,5 C 4,8 C
18.01.2011 23:00 4,6 C 4,3 C 44 % 61 % 1021 hPa 0,0 l/m 0,0 km/h (0 Bft) - - -6,6 C 4,6 C
19.01.2011 00:00 4,4 C 4,1 C 41 % 59 % 1021 hPa 0,0 l/m 0,0 km/h (0 Bft) - - -7,6 C 4,4 C
19.01.2011 01:00 4,0 C 3,7 C 38 % 55 % 1022 hPa 0,0 l/m 0,0 km/h (0 Bft) - - -9,0 C 4,0 C
19.01.2011 02:00 3,5 C 3,0 C 35 % 52 % 1023 hPa 0,0 l/m 0,0 km/h (0 Bft) - - -10,5 C 3,5 C
19.01.2011 03:00 3,1 C 2,6 C 39 % 56 % 1023 hPa 0,0 l/m 0,0 km/h (0 Bft) - - -9,7 C 3,1 C
19.01.2011 04:00 2,8 C 2,3 C 43 % 59 % 1023 hPa 0,0 l/m 0,0 km/h (0 Bft) - - -8,5 C 2,8 C
19.01.2011 05:00 2,7 C 2,3 C 45 % 61 % 1023 hPa 0,0 l/m 0,0 km/h (0 Bft) - - -8,2 C 2,7 C
19.01.2011 06:00 2,4 C 2,0 C 45 % 62 % 1023 hPa 0,0 l/m 0,0 km/h (0 Bft) - - -8,3 C 2,4 C
19.01.2011 07:00 2,0 C 1,7 C 47 % 65 % 1023 hPa 0,0 l/m 0,0 km/h (0 Bft) - - -8,2 C 2,0 C
19.01.2011 08:00 1,4 C 0,9 C 50 % 65 % 1024 hPa 0,0 l/m 0,0 km/h (0 Bft) - - -8,0 C 1,4 C
19.01.2011 09:00 1,3 C 1,0 C 55 % 69 % 1024 hPa 0,0 l/m 0,0 km/h (0 Bft) - - -6,7 C 1,3 C
19.01.2011 10:00 2,3 C 2,2 C 53 % 68 % 1024 hPa 0,0 l/m 0,0 km/h (0 Bft) - - -6,4 C 2,3 C
19.01.2011 11:00 2,8 C 4,3 C 52 % 61 % 1024 hPa 0,4 l/m 0,0 km/h (0 Bft) - - -6,0 C 2,8 C
19.01.2011 12:00 4,4 C 5,1 C 38 % 46 % 1024 hPa 0,0 l/m 0,0 km/h (0 Bft) - - -8,7 C 4,4 C
19.01.2011 13:00 4,8 C 5,1 C 34 % 46 % 1023 hPa 0,0 l/m 0,0 km/h (0 Bft) - - -10,0 C 4,8 C
19.01.2011 14:00 5,7 C 7,4 C 25 % 39 % 1023 hPa 0,0 l/m 0,0 km/h (0 Bft) - - -13,0 C 5,7 C
19.01.2011 15:00 4,5 C 4,6 C 27 % 43 % 1023 hPa 0,0 l/m 0,0 km/h (0 Bft) - - -13,1 C 4,5 C
19.01.2011 16:00 3,2 C 2,8 C 39 % 55 % 1023 hPa 0,0 l/m 0,0 km/h (0 Bft) - - -9,6 C 3,2 C
19.01.2011 17:00 1,7 C 1,3 C 45 % 62 % 1023 hPa 0,0 l/m 0,0 km/h (0 Bft) - - -9,0 C 1,7 C
19.01.2011 18:00 1,8 C 1,5 C 52 % 67 % 1023 hPa 0,0 l/m 0,0 km/h (0 Bft) - - -7,0 C 1,8 C
19.01.2011 19:00 2,1 C 1,7 C 53 % 68 % 1022 hPa 0,0 l/m 0,0 km/h (0 Bft) - - -6,6 C 2,1 C
19.01.2011 20:00 2,4 C 2,0 C 53 % 68 % 1022 hPa 0,0 l/m 0,0 km/h (0 Bft) - - -6,3 C 2,4 C
19.01.2011 21:00 1,8 C 1,8 C 52 % 67 % 1022 hPa 1,1 l/m 0,0 km/h (0 Bft) - - -7,1 C 1,8 C
19.01.2011 22:00 1,5 C 1,4 C 57 % 70 % 1022 hPa 0,0 l/m 0,0 km/h (0 Bft) - - -6,2 C 1,5 C
19.01.2011 23:00 0,9 C 0,5 C 60 % 72 % 1022 hPa 0,0 l/m 0,0 km/h (0 Bft) - - -6,0 C 0,9 C
20.01.2011 00:00 0,6 C 0,3 C 63 % 74 % 1022 hPa 0,0 l/m 0,0 km/h (0 Bft) - - -5,7 C 0,6 C
20.01.2011 01:00 0,9 C 0,6 C 65 % 75 % 1021 hPa 0,0 l/m 0,0 km/h (0 Bft) - - -4,9 C 0,9 C
20.01.2011 02:00 0,5 C 0,1 C 66 % 75 % 1021 hPa 0,0 l/m 0,0 km/h (0 Bft) - - -5,1 C 0,5 C
20.01.2011 03:00 0,8 C 0,4 C 70 % 78 % 1021 hPa 0,0 l/m 0,0 km/h (0 Bft) - - -4,2 C 0,8 C
20.01.2011 04:00 0,1 C -0,3 C 68 % 77 % 1021 hPa 0,0 l/m 0,0 km/h (0 Bft) - - -5,1 C 0,1 C
20.01.2011 05:00 0,3 C 0,1 C 71 % 78 % 1021 hPa 0,0 l/m 0,0 km/h (0 Bft) - - -4,3 C 0,3 C
20.01.2011 06:00 0,3 C -0,1 C 71 % 78 % 1020 hPa 0,0 l/m 0,0 km/h (0 Bft) - - -4,5 C 0,3 C
20.01.2011 07:00 -0,2 C -0,4 C 70 % 78 % 1020 hPa 0,0 l/m 0,0 km/h (0 Bft) - - -5,1 C -0,2 C
20.01.2011 08:00 -0,4 C -0,7 C 71 % 78 % 1021 hPa 0,0 l/m 0,0 km/h (0 Bft) - - -5,0 C -0,4 C
20.01.2011 09:00 -0,1 C -0,3 C 73 % 79 % 1021 hPa 0,0 l/m 0,0 km/h (0 Bft) - - -4,4 C -0,1 C
20.01.2011 10:00 1,9 C 2,7 C 74 % 79 % 1022 hPa 0,0 l/m 0,0 km/h (0 Bft) - - -2,2 C 1,9 C
20.01.2011 11:00 2,5 C 4,0 C 52 % 56 % 1022 hPa 0,0 l/m 0,0 km/h (0 Bft) - - -6,4 C 2,5 C
20.01.2011 12:00 6,0 C 6,2 C 32 % 38 % 1022 hPa 0,0 l/m 0,0 km/h (0 Bft) - - -10,4 C 6,0 C
20.01.2011 13:00 6,1 C 7,1 C 20 % 28 % 1022 hPa 0,0 l/m 0,0 km/h (0 Bft) - - -15,2 C 6,1 C
20.01.2011 14:00 3,8 C 3,8 C 23 % 38 % 1022 hPa 0,0 l/m 0,0 km/h (0 Bft) - - -15,7 C 3,8 C
20.01.2011 15:00 3,6 C 4,0 C 29 % 44 % 1022 hPa 0,0 l/m 0,0 km/h (0 Bft) - - -13,0 C 3,6 C
20.01.2011 16:00 2,8 C 2,5 C 25 % 44 % 1023 hPa 0,0 l/m 0,0 km/h (0 Bft) - - -15,3 C 2,8 C
20.01.2011 17:00 2,1 C 1,8 C 29 % 47 % 1023 hPa 0,0 l/m 0,0 km/h (0 Bft) - - -14,1 C 2,1 C
20.01.2011 18:00 1,7 C 1,5 C 27 % 47 % 1023 hPa 0,0 l/m 0,0 km/h (0 Bft) - - -15,3 C 1,7 C
20.01.2011 19:00 1,5 C 1,2 C 29 % 46 % 1023 hPa 0,0 l/m 0,0 km/h (0 Bft) - - -14,8 C 1,5 C
20.01.2011 20:00 1,3 C 0,9 C 29 % 47 % 1024 hPa 0,0 l/m 0,0 km/h (0 Bft) - - -14,8 C 1,3 C
20.01.2011 21:00 0,7 C 0,3 C 25 % 46 % 1024 hPa 0,0 l/m 0,0 km/h (0 Bft) - - -17,1 C 0,7 C
20.01.2011 22:00 0,6 C 0,4 C 26 % 45 % 1024 hPa 0,0 l/m 0,0 km/h (0 Bft) - - -16,6 C 0,6 C
20.01.2011 23:00 0,5 C 0,2 C 25 % 45 % 1025 hPa 0,0 l/m 0,0 km/h (0 Bft) - - -17,2 C 0,5 C
21.01.2011 00:00 -0,4 C -0,9 C 29 % 46 % 1025 hPa 0,0 l/m 0,0 km/h (0 Bft) - - -16,5 C -0,4 C
21.01.2011 01:00 -0,7 C -1,1 C 34 % 50 % 1025 hPa 0,0 l/m 0,0 km/h (0 Bft) - - -14,6 C -0,7 C
21.01.2011 02:00 -1,4 C -1,8 C 33 % 49 % 1026 hPa 0,0 l/m 0,0 km/h (0 Bft) - - -15,5 C -1,4 C
21.01.2011 03:00 -1,8 C -2,3 C 36 % 51 % 1026 hPa 0,0 l/m 0,0 km/h (0 Bft) - - -15,0 C -1,8 C
21.01.2011 04:00 -1,1 C -1,5 C 36 % 50 % 1026 hPa 0,0 l/m 0,0 km/h (0 Bft) - - -14,4 C -1,1 C
21.01.2011 05:00 -0,9 C -1,4 C 30 % 47 % 1026 hPa 0,0 l/m 0,0 km/h (0 Bft) - - -16,3 C -0,9 C
21.01.2011 06:00 -1,2 C -1,4 C 22 % 45 % 1026 hPa 0,0 l/m 0,0 km/h (0 Bft) - - -20,1 C -1,2 C
21.01.2011 07:00 -1,3 C -1,6 C 21 % 44 % 1027 hPa 0,0 l/m 0,0 km/h (0 Bft) - - -20,7 C -1,3 C
21.01.2011 08:00 -1,2 C -1,5 C 22 % 42 % 1027 hPa 0,0 l/m 0,0 km/h (0 Bft) - - -20,4 C -1,2 C
21.01.2011 09:00 -0,9 C -1,1 C 20 % 41 % 1027 hPa 0,0 l/m 0,0 km/h (0 Bft) - - -20,9 C -0,9 C
21.01.2011 10:00 -0,4 C -0,3 C 20 % 41 % 1027 hPa 0,0 l/m 0,0 km/h (0 Bft) - - -20,6 C -0,4 C
21.01.2011 11:00 0,4 C 2,8 C 20 % 28 % 1028 hPa 0,0 l/m 0,0 km/h (0 Bft) - - -19,9 C 0,4 C
21.01.2011 12:00 2,8 C 2,5 C 20 % 29 % 1027 hPa 0,0 l/m 0,0 km/h (0 Bft) - - -17,9 C 2,8 C
21.01.2011 13:00 5,4 C 7,9 C 20 % 20 % 1027 hPa 0,0 l/m 0,0 km/h (0 Bft) - - -15,7 C 5,4 C
21.01.2011 14:00 5,9 C 6,4 C 20 % 20 % 1026 hPa 0,0 l/m 0,0 km/h (0 Bft) - - -15,3 C 5,9 C
21.01.2011 15:00 4,5 C 5,6 C 20 % 23 % 1026 hPa 0,0 l/m 0,0 km/h (0 Bft) - - -16,5 C 4,5 C
21.01.2011 16:00 2,1 C 1,0 C 20 % 35 % 1026 hPa 0,0 l/m 0,0 km/h (0 Bft) - - -18,5 C 2,1 C
21.01.2011 17:00 -0,6 C -1,1 C 20 % 41 % 1026 hPa 0,0 l/m 0,0 km/h (0 Bft) - - -20,7 C -0,6 C
21.01.2011 18:00 -1,8 C -2,5 C 28 % 49 % 1026 hPa 0,0 l/m 0,0 km/h (0 Bft) - - -18,0 C -1,8 C
21.01.2011 19:00 -2,0 C -2,7 C 35 % 51 % 1026 hPa 0,0 l/m 0,0 km/h (0 Bft) - - -15,6 C -2,0 C
21.01.2011 20:00 -1,5 C -2,0 C 38 % 55 % 1027 hPa 0,0 l/m 0,0 km/h (0 Bft) - - -13,9 C -1,5 C
21.01.2011 21:00 -0,9 C -1,2 C 37 % 54 % 1027 hPa 0,0 l/m 0,0 km/h (0 Bft) - - -13,7 C -0,9 C
21.01.2011 22:00 -0,7 C -1,0 C 38 % 54 % 1027 hPa 0,0 l/m 0,0 km/h (0 Bft) - - -13,2 C -0,7 C
21.01.2011 23:00 -0,6 C -0,9 C 40 % 55 % 1027 hPa 0,0 l/m 0,0 km/h (0 Bft) - - -12,6 C -0,6 C
22.01.2011 00:00 -0,6 C -0,9 C 41 % 57 % 1026 hPa 0,0 l/m 0,0 km/h (0 Bft) - - -12,3 C -0,6 C
22.01.2011 01:00 -0,6 C -0,9 C 42 % 58 % 1026 hPa 0,0 l/m 0,0 km/h (0 Bft) - - -11,9 C -0,6 C
22.01.2011 02:00 -0,6 C -0,9 C 44 % 60 % 1026 hPa 0,0 l/m 0,0 km/h (0 Bft) - - -11,3 C -0,6 C
22.01.2011 03:00 -0,9 C -1,1 C 45 % 60 % 1025 hPa 0,0 l/m 0,0 km/h (0 Bft) - - -11,3 C -0,9 C
22.01.2011 04:00 -2,2 C -2,5 C 46 % 59 % 1025 hPa 0,0 l/m 0,0 km/h (0 Bft) - - -12,3 C -2,2 C
22.01.2011 05:00 -3,5 C -4,0 C 48 % 60 % 1025 hPa 0,0 l/m 0,0 km/h (0 Bft) - - -13,0 C -3,5 C
22.01.2011 06:00 -3,1 C -3,6 C 51 % 66 % 1025 hPa 0,0 l/m 0,0 km/h (0 Bft) - - -11,7 C -3,1 C
22.01.2011 07:00 -2,2 C -2,6 C 52 % 69 % 1025 hPa 0,0 l/m 0,0 km/h (0 Bft) - - -10,7 C -2,2 C
22.01.2011 08:00 -1,7 C -2,0 C 52 % 70 % 1024 hPa 0,0 l/m 0,0 km/h (0 Bft) - - -10,2 C -1,7 C
22.01.2011 09:00 -1,1 C -1,4 C 53 % 70 % 1024 hPa 0,0 l/m 0,0 km/h (0 Bft) - - -9,6 C -1,1 C
22.01.2011 10:00 -0,6 C -1,0 C 53 % 68 % 1024 hPa 0,0 l/m 0,0 km/h (0 Bft) - - -9,1 C -0,6 C
22.01.2011 11:00 0,4 C 0,2 C 52 % 66 % 1024 hPa 0,0 l/m 0,0 km/h (0 Bft) - - -8,4 C 0,4 C
22.01.2011 12:00 0,9 C 0,9 C 46 % 59 % 1024 hPa 0,0 l/m 0,0 km/h (0 Bft) - - -9,4 C 0,9 C
22.01.2011 13:00 0,9 C 0,9 C 44 % 57 % 1023 hPa 0,0 l/m 0,0 km/h (0 Bft) - - -10,0 C 0,9 C
22.01.2011 14:00 1,4 C 1,3 C 42 % 55 % 1023 hPa 0,0 l/m 0,0 km/h (0 Bft) - - -10,1 C 1,4 C
22.01.2011 15:00 1,3 C 1,3 C 41 % 54 % 1022 hPa 0,4 l/m 0,0 km/h (0 Bft) - - -10,5 C 1,3 C
22.01.2011 16:00 0,9 C 0,7 C 43 % 57 % 1022 hPa 0,0 l/m 0,0 km/h (0 Bft) - - -10,4 C 0,9 C
22.01.2011 17:00 0,6 C 0,4 C 45 % 58 % 1022 hPa 0,0 l/m 0,0 km/h (0 Bft) - - -10,0 C 0,6 C
22.01.2011 18:00 0,2 C -0,2 C 46 % 61 % 1022 hPa 0,0 l/m 0,0 km/h (0 Bft) - - -10,0 C 0,2 C
22.01.2011 19:00 0,2 C -0,3 C 48 % 62 % 1022 hPa 0,0 l/m 0,0 km/h (0 Bft) - - -9,7 C 0,2 C
22.01.2011 20:00 0,2 C -0,2 C 47 % 62 % 1022 hPa 0,0 l/m 0,0 km/h (0 Bft) - - -9,8 C 0,2 C
22.01.2011 21:00 0,1 C -0,4 C 49 % 63 % 1022 hPa 0,0 l/m 0,0 km/h (0 Bft) - - -9,4 C 0,1 C
22.01.2011 22:00 0,2 C -0,1 C 48 % 62 % 1022 hPa 0,0 l/m 0,0 km/h (0 Bft) - - -9,6 C 0,2 C
22.01.2011 23:00 0,2 C -0,2 C 46 % 60 % 1022 hPa 0,0 l/m 0,0 km/h (0 Bft) - - -10,0 C 0,2 C
23.01.2011 00:00 0,2 C -0,2 C 46 % 60 % 1022 hPa 0,0 l/m 0,0 km/h (0 Bft) - - -10,0 C 0,2 C
23.01.2011 01:00 0,2 C -0,2 C 47 % 61 % 1022 hPa 0,0 l/m 0,0 km/h (0 Bft) - - -9,9 C 0,2 C
23.01.2011 02:00 0,1 C -0,4 C 46 % 60 % 1021 hPa 0,0 l/m 0,0 km/h (0 Bft) - - -10,2 C 0,1 C
23.01.2011 03:00 0,0 C -0,4 C 47 % 61 % 1021 hPa 0,0 l/m 0,0 km/h (0 Bft) - - -9,9 C 0,0 C
23.01.2011 04:00 -0,1 C -0,4 C 47 % 61 % 1021 hPa 0,0 l/m 0,0 km/h (0 Bft) - - -10,0 C -0,1 C
23.01.2011 05:00 0,0 C -0,4 C 48 % 62 % 1021 hPa 0,0 l/m 0,0 km/h (0 Bft) - - -9,8 C 0,0 C
23.01.2011 06:00 0,0 C -0,4 C 49 % 63 % 1021 hPa 0,0 l/m 0,0 km/h (0 Bft) - - -9,4 C 0,0 C
23.01.2011 07:00 0,1 C -0,4 C 50 % 63 % 1021 hPa 0,0 l/m 0,0 km/h (0 Bft) - - -9,2 C 0,1 C
23.01.2011 08:00 -0,1 C -0,4 C 50 % 64 % 1021 hPa 0,0 l/m 0,0 km/h (0 Bft) - - -9,3 C -0,1 C
23.01.2011 09:00 0,4 C 0,7 C 50 % 64 % 1020 hPa 0,0 l/m 0,0 km/h (0 Bft) - - -8,9 C 0,4 C
23.01.2011 10:00 1,3 C 6,8 C 47 % 36 % 1020 hPa 0,0 l/m 0,0 km/h (0 Bft) - - -8,8 C 1,3 C
23.01.2011 11:00 3,3 C 4,3 C 40 % 42 % 1020 hPa 0,0 l/m 0,0 km/h (0 Bft) - - -9,1 C 3,3 C
23.01.2011 12:00 4,1 C 4,8 C 31 % 42 % 1020 hPa 0,0 l/m 0,0 km/h (0 Bft) - - -11,5 C 4,1 C
23.01.2011 13:00 4,3 C 4,4 C 34 % 47 % 1019 hPa 0,0 l/m 0,0 km/h (0 Bft) - - -10,3 C 4,3 C
23.01.2011 14:00 4,1 C 4,1 C 39 % 53 % 1019 hPa 0,0 l/m 0,0 km/h (0 Bft) - - -8,6 C 4,1 C
23.01.2011 15:00 4,1 C 4,0 C 41 % 56 % 1019 hPa 0,0 l/m 0,0 km/h (0 Bft) - - -7,9 C 4,1 C
23.01.2011 16:00 3,8 C 3,7 C 43 % 57 % 1019 hPa 0,0 l/m 0,0 km/h (0 Bft) - - -7,7 C 3,8 C
23.01.2011 17:00 3,6 C 3,3 C 44 % 58 % 1019 hPa 0,0 l/m 0,0 km/h (0 Bft) - - -7,5 C 3,6 C
23.01.2011 18:00 3,3 C 3,0 C 45 % 60 % 1019 hPa 0,0 l/m 0,0 km/h (0 Bft) - - -7,6 C 3,3 C
23.01.2011 19:00 2,8 C 2,7 C 46 % 62 % 1019 hPa 0,0 l/m 0,0 km/h (0 Bft) - - -7,6 C 2,8 C
23.01.2011 20:00 2,5 C 2,4 C 50 % 66 % 1019 hPa 0,0 l/m 0,0 km/h (0 Bft) - - -6,8 C 2,5 C
23.01.2011 21:00 2,5 C 2,5 C 54 % 71 % 1019 hPa 0,0 l/m 0,0 km/h (0 Bft) - - -6,0 C 2,5 C
23.01.2011 22:00 2,4 C 2,3 C 56 % 72 % 1019 hPa 0,0 l/m 0,0 km/h (0 Bft) - - -5,5 C 2,4 C
23.01.2011 23:00 2,3 C 2,3 C 58 % 73 % 1019 hPa 0,0 l/m 0,0 km/h (0 Bft) - - -5,1 C 2,3 C
Min-Datum _ 22.01.11 22.01.11 19.01.11 21.01.11 18.01.11 - 17.01.11 - 21.01.11 22.01.11
_ Min-Zeit 05:50 05:50 14:20 13:20 13:50 - 00:20 - 08:20 05:50
Minimum _ -3,7 C -4,2 C 20 % 20 % 1016 hPa - 0,0 km/h (0 Bft) - -21,3 C -3,7 C
Max-Datum _ 18.01.11 19.01.11 17.01.11 17.01.11 21.01.11 18.01.11 17.01.11 - 18.01.11 18.01.11
_ Max-Zeit 13:50 14:20 10:20 11:20 10:50 14:20 00:20 - 10:50 13:50
Maximum _ 8,7 C 10,1 C 79 % 86 % 1028 hPa 1,1 l/m 0,0 km/h
- - (0 Bft)
- 2,6 C 8,7 C
Durchschnitt _ 2,3 C 2,2 C 47 % 60 % 1022 hPa #4,0 l/m 0,0 km/h (0 Bft) - - -8,4 C 2,3 C
©2001-2010 Bettendroffer Claude